Time;durP1;ratioP1;P1;durP2;ratioP2;P2;SDS_P1;SDS_P2;PMS_P1;PMS_P2;Temp;Humidity;BMP_temperature;BMP_pressure;BME280_temperature;BME280_humidity;BME280_pressure;Samples;Min_cycle;Max_cycle;Signal;HPM_P1;HPM_P2
2021/09/11 12:48:54;;;;;;;6.85;6.03;;;;;;;27.30;30.55;100813.88;1796188;79;46787;-85
2021/09/11 12:51:21;;;;;;;8.05;5.50;;;;;;;27.21;31.14;100820.05;1752387;80;20888;-87
2021/09/11 12:53:48;;;;;;;7.80;5.83;;;;;;;27.22;31.61;100819.52;1752290;80;21469;-84
2021/09/11 12:56:22;;;;;;;10.58;6.45;;;;;;;27.21;31.71;100822.72;1774431;80;20958;-84
2021/09/11 12:58:55;;;;;;;7.20;6.50;;;;;;;27.21;30.90;100824.56;1774428;80;21018;-84
2021/09/11 13:01:23;;;;;;;9.83;6.87;;;;;;;27.18;30.46;100819.15;1777969;80;21036;-86
2021/09/11 13:03:52;;;;;;;6.70;6.10;;;;;;;27.16;30.90;100825.22;1751949;80;21032;-85
2021/09/11 13:06:21;;;;;;;9.60;5.15;;;;;;;27.16;31.08;100829.77;1752590;80;21504;-83
2021/09/11 13:08:49;;;;;;;6.87;5.90;;;;;;;27.14;31.31;100821.14;1752131;80;21515;-86
2021/09/11 13:11:18;;;;;;;7.67;5.65;;;;;;;27.14;31.09;100825.16;1774392;80;20976;-89
2021/09/11 13:13:45;;;;;;;12.13;6.10;;;;;;;27.11;30.96;100829.09;1774317;80;20988;-88
2021/09/11 13:16:14;;;;;;;6.67;5.03;;;;;;;27.08;30.65;100819.66;1752575;80;21091;-90
2021/09/11 13:18:44;;;;;;;6.97;6.08;;;;;;;27.05;30.24;100820.09;1774312;80;21001;-87
2021/09/11 13:21:13;;;;;;;8.35;6.22;;;;;;;27.02;30.41;100822.39;1752474;80;21029;-86
2021/09/11 13:23:51;;;;;;;8.85;6.08;;;;;;;26.99;30.84;100818.30;1747685;80;21832;-87
2021/09/11 13:26:22;;;;;;;7.17;6.12;;;;;;;26.97;31.32;100819.03;1761600;80;20998;-84
2021/09/11 13:28:50;;;;;;;8.03;6.22;;;;;;;26.94;31.01;100819.50;1770291;79;21557;-86
2021/09/11 13:31:21;;;;;;;7.95;6.50;;;;;;;26.92;31.00;100817.55;1743213;80;21889;-86
2021/09/11 13:33:49;;;;;;;16.25;6.00;;;;;;;26.89;31.02;100822.82;1730077;81;20996;-85
2021/09/11 13:36:21;;;;;;;6.87;5.83;;;;;;;26.87;30.57;100817.41;1765513;80;21043;-86
2021/09/11 13:38:50;;;;;;;8.48;6.03;;;;;;;26.82;30.62;100816.72;1644536;84;21046;-87
2021/09/11 13:41:22;;;;;;;9.13;6.40;;;;;;;26.79;31.06;100815.81;1760441;80;21088;-86
2021/09/11 13:43:49;;;;;;;9.33;6.05;;;;;;;26.77;31.39;100819.21;1772242;79;21802;-87
2021/09/11 13:46:20;;;;;;;6.53;5.90;;;;;;;26.74;30.97;100811.09;1739128;80;20957;-84
2021/09/11 13:48:47;;;;;;;6.92;6.10;;;;;;;26.71;31.33;100816.89;1764292;80;20986;-87
2021/09/11 13:51:16;;;;;;;8.70;5.83;;;;;;;26.69;31.26;100812.77;1733913;80;21051;-86
2021/09/11 13:53:44;;;;;;;8.10;5.60;;;;;;;26.66;31.36;100810.03;1768823;79;21429;-85
2021/09/11 13:56:16;;;;;;;7.22;5.72;;;;;;;26.65;31.93;100819.60;1740171;80;21569;-87
2021/09/11 13:58:44;;;;;;;6.45;5.72;;;;;;;26.62;32.49;100808.84;1748463;80;21014;-85
2021/09/11 14:01:11;;;;;;;10.40;6.50;;;;;;;26.59;32.94;100811.94;1751867;80;21057;-85
2021/09/11 14:03:39;;;;;;;11.35;6.53;;;;;;;26.56;32.53;100809.19;1751993;80;21045;-85
2021/09/11 14:06:09;;;;;;;10.35;6.55;;;;;;;26.54;33.14;100813.12;1752100;80;21054;-86
2021/09/11 14:08:38;;;;;;;11.18;6.10;;;;;;;26.51;33.18;100810.87;1752008;80;21417;-87
2021/09/11 14:11:07;;;;;;;11.10;5.65;;;;;;;26.47;33.60;100805.67;1752368;80;21037;-86
2021/09/11 14:13:35;;;;;;;12.07;6.67;;;;;;;26.42;33.84;100811.66;1751663;80;20947;-86
2021/09/11 14:16:05;;;;;;;8.18;6.30;;;;;;;26.36;33.63;100805.86;1759250;80;20978;-86
2021/09/11 14:18:33;;;;;;;14.93;7.55;;;;;;;26.30;33.99;100807.00;1759836;80;21074;-85
2021/09/11 14:21:01;;;;;;;9.48;6.40;;;;;;;26.24;34.57;100803.87;1746488;80;21294;-85
2021/09/11 14:23:30;;;;;;;9.25;6.83;;;;;;;26.19;34.51;100798.87;1735905;81;20952;-87
2021/09/11 14:26:01;;;;;;;9.53;6.33;;;;;;;26.12;34.56;100801.06;1696201;84;21007;-84
2021/09/11 14:28:28;;;;;;;13.13;6.45;;;;;;;26.06;34.39;100795.73;1733422;82;20987;-86
2021/09/11 14:30:56;;;;;;;10.53;6.53;;;;;;;25.99;35.07;100799.79;1713859;82;21046;-88
2021/09/11 14:33:24;;;;;;;11.48;6.35;;;;;;;25.93;35.57;100791.28;1731903;82;22213;-87
2021/09/11 14:35:53;;;;;;;15.23;6.47;;;;;;;25.85;36.14;100795.53;1727401;81;21743;-86
2021/09/11 14:38:22;;;;;;;13.80;7.05;;;;;;;25.78;36.03;100803.05;1724308;82;21569;-85
2021/09/11 14:40:49;;;;;;;16.97;6.67;;;;;;;25.70;35.72;100792.63;1724360;80;21128;-86
2021/09/11 14:43:18;;;;;;;15.53;6.80;;;;;;;25.64;36.23;100800.14;1743727;80;21070;-84
2021/09/11 14:45:46;;;;;;;10.10;6.22;;;;;;;25.56;36.55;100801.18;1735283;80;21171;-86
2021/09/11 14:48:13;;;;;;;14.93;6.37;;;;;;;25.49;37.16;100793.23;1716416;82;21014;-88
2021/09/11 14:50:41;;;;;;;8.50;5.80;;;;;;;25.42;37.49;100794.27;1710190;82;20955;-85
2021/09/11 14:53:09;;;;;;;7.45;5.75;;;;;;;25.33;38.03;100793.13;1761021;80;21415;-86
2021/09/11 14:55:37;;;;;;;12.50;6.70;;;;;;;25.25;38.79;100787.22;1747019;80;21074;-86
2021/09/11 14:58:06;;;;;;;7.70;6.20;;;;;;;25.18;39.47;100787.22;1714004;82;21728;-90
2021/09/11 15:00:33;;;;;;;15.60;7.25;;;;;;;25.10;39.63;100781.62;1713620;82;21078;-86
2021/09/11 15:03:01;;;;;;;11.83;7.20;;;;;;;25.02;39.65;100784.50;1729283;81;21062;-87
2021/09/11 15:05:28;;;;;;;29.60;7.15;;;;;;;24.95;39.72;100779.70;1676287;84;21546;-87
2021/09/11 15:07:56;;;;;;;11.05;6.33;;;;;;;24.87;40.46;100784.71;1728498;82;21106;-87
2021/09/11 15:10:23;;;;;;;15.18;7.03;;;;;;;24.78;40.75;100784.11;1754034;80;21208;-86
2021/09/11 15:12:50;;;;;;;14.20;6.85;;;;;;;24.68;41.19;100781.84;1682861;84;21640;-87
2021/09/11 15:15:17;;;;;;;11.95;7.55;;;;;;;24.61;41.48;100782.84;1682299;84;20979;-88
2021/09/11 15:17:45;;;;;;;11.48;7.30;;;;;;;24.51;41.25;100782.73;1701904;84;21015;-87
2021/09/11 15:20:14;;;;;;;15.45;8.70;;;;;;;24.44;43.10;100782.44;1765620;80;20948;-88
2021/09/11 15:22:44;;;;;;;13.48;7.60;;;;;;;24.35;43.96;100784.46;1686338;83;21089;-88
2021/09/11 15:25:14;;;;;;;18.50;7.80;;;;;;;24.24;44.67;100781.89;1713258;82;21039;-87
2021/09/11 15:27:43;;;;;;;15.58;7.58;;;;;;;24.14;43.88;100784.11;1759079;80;21015;-86
2021/09/11 15:30:14;;;;;;;29.75;8.93;;;;;;;24.04;43.56;100787.16;1751750;80;21019;-86
2021/09/11 15:32:43;;;;;;;21.47;8.57;;;;;;;23.93;46.00;100784.06;1752201;81;21050;-87
2021/09/11 15:35:10;;;;;;;215.92;16.25;;;;;;;23.81;50.04;100782.98;1745299;80;21070;-87
2021/09/11 15:37:39;;;;;;;29.40;9.80;;;;;;;23.71;68.74;100785.18;1743700;80;20975;-86
2021/09/11 15:40:10;;;;;;;56.45;10.80;;;;;;;23.56;66.93;100783.48;1773400;80;20999;-87
2021/09/11 15:42:38;;;;;;;21.73;10.05;;;;;;;23.42;59.44;100789.23;1743800;80;21086;-87
2021/09/11 15:45:08;;;;;;;13.68;9.30;;;;;;;23.30;52.38;100790.81;1743666;80;21441;-86
2021/09/11 15:47:36;;;;;;;14.50;8.65;;;;;;;23.20;50.68;100783.70;1757389;80;21087;-87
2021/09/11 15:50:05;;;;;;;15.75;9.28;;;;;;;23.12;50.42;100787.28;1741719;80;21109;-86
2021/09/11 15:52:33;;;;;;;14.23;9.45;;;;;;;23.03;50.95;100788.47;1772953;80;21062;-87
2021/09/11 15:55:00;;;;;;;11.63;8.38;;;;;;;22.93;52.05;100792.77;1737235;81;21034;-88
2021/09/11 15:57:28;;;;;;;14.00;8.70;;;;;;;22.84;51.83;100792.11;1740164;81;21113;-87
2021/09/11 15:59:56;;;;;;;18.48;11.65;;;;;;;22.76;52.46;100796.22;1708540;80;21124;-86
2021/09/11 16:02:23;;;;;;;16.60;11.40;;;;;;;22.67;53.96;100802.99;1736539;80;21006;-87
2021/09/11 16:04:51;;;;;;;19.17;10.75;;;;;;;22.58;55.51;100800.67;1729108;81;21009;-89
2021/09/11 16:07:21;;;;;;;22.65;12.07;;;;;;;22.47;56.71;100797.50;1752698;81;21092;-87
2021/09/11 16:09:50;;;;;;;20.37;13.08;;;;;;;22.38;57.25;100796.79;1746402;80;21133;-89
2021/09/11 16:12:19;;;;;;;25.92;14.30;;;;;;;22.29;58.12;100794.42;1759772;80;21078;-90
2021/09/11 16:14:46;;;;;;;29.63;15.48;;;;;;;22.18;59.08;100799.72;1772495;80;21022;-87
2021/09/11 16:17:14;;;;;;;27.48;15.38;;;;;;;22.08;59.20;100793.89;1750052;80;21093;-92
2021/09/11 16:19:47;;;;;;;26.62;15.65;;;;;;;21.98;59.06;100804.32;1726879;80;22283;-90
2021/09/11 16:22:18;;;;;;;28.30;14.90;;;;;;;21.88;58.71;100800.61;1732400;80;21544;-90
2021/09/11 16:24:45;;;;;;;36.10;15.98;;;;;;;21.79;61.20;100809.70;1745188;80;21252;-90
2021/09/11 16:27:14;;;;;;;46.13;15.18;;;;;;;21.70;60.89;100814.27;1738515;80;21505;-89
2021/09/11 16:29:43;;;;;;;;;;;;;;;21.62;77.74;100822.31;1753889;80;21011;-90
2021/09/11 16:32:15;;;;;;;44.23;13.80;;;;;;;21.55;100.00;100818.72;1739579;81;20135;-92
2021/09/11 16:34:45;;;;;;;43.00;16.25;;;;;;;21.43;100.00;100821.00;1721451;82;21022;-94
2021/09/11 16:37:14;;;;;;;29.63;17.45;;;;;;;21.20;100.00;100825.03;1723544;80;21122;-89
2021/09/11 16:39:42;;;;;;;30.02;18.23;;;;;;;21.03;100.00;100822.53;1744980;80;21007;-90
2021/09/11 16:42:10;;;;;;;32.67;17.52;;;;;;;20.91;100.00;100821.33;1751065;80;21071;-92
2021/09/11 16:44:39;;;;;;;30.70;17.07;;;;;;;20.81;100.00;100820.27;1750693;80;21057;-92
2021/09/11 16:47:06;;;;;;;26.93;16.67;;;;;;;20.73;100.00;100831.72;1751625;80;21120;-91
2021/09/11 16:49:34;;;;;;;26.10;18.17;;;;;;;20.65;100.00;100829.95;1717777;80;21117;-89
2021/09/11 16:52:02;;;;;;;33.20;17.32;;;;;;;20.58;100.00;100826.84;1745782;80;21100;-91
2021/09/11 16:54:29;;;;;;;27.58;17.85;;;;;;;20.54;100.00;100832.17;1732502;81;21065;-89
2021/09/11 16:56:59;;;;;;;27.75;18.42;;;;;;;20.49;100.00;100833.52;1749359;80;21592;-90
2021/09/11 16:59:36;;;;;;;30.05;19.25;;;;;;;20.44;100.00;100839.84;1760494;80;21512;-90
2021/09/11 17:02:01;;;;;;;29.75;18.07;;;;;;;20.40;100.00;100835.07;1751106;80;21107;-90
2021/09/11 17:04:29;;;;;;;44.70;18.37;;;;;;;20.35;100.00;100840.88;1714609;80;21492;-90
2021/09/11 17:06:58;;;;;;;33.25;20.85;;;;;;;20.35;100.00;100843.53;1756692;80;20965;-89
2021/09/11 17:09:27;;;;;;;48.42;23.35;;;;;;;20.32;100.00;100842.54;1730010;80;21586;-91
2021/09/11 17:11:54;;;;;;;78.50;28.65;;;;;;;20.28;100.00;100839.94;1749722;80;21129;-90
2021/09/11 17:14:23;;;;;;;109.37;57.48;;;;;;;20.25;100.00;100845.56;1759846;80;21537;-91
2021/09/11 17:16:50;;;;;;;62.15;38.38;;;;;;;20.20;100.00;100841.30;1751578;80;21396;-90
2021/09/11 17:19:19;;;;;;;57.85;34.88;;;;;;;20.12;100.00;100844.80;1751108;80;21078;-89
2021/09/11 17:21:50;;;;;;;53.80;32.55;;;;;;;20.04;100.00;100850.95;1773310;80;21066;-90
2021/09/11 17:24:23;;;;;;;64.75;29.60;;;;;;;19.95;100.00;100844.05;1710890;81;21051;-91
2021/09/11 17:26:51;;;;;;;46.77;28.80;;;;;;;19.89;100.00;100852.67;1678147;82;21103;-91
2021/09/11 17:29:18;;;;;;;48.00;28.40;;;;;;;19.80;100.00;100851.35;1686582;82;21423;-88
2021/09/11 17:31:46;;;;;;;46.28;28.12;;;;;;;19.73;100.00;100854.34;1710549;82;21081;-90
2021/09/11 17:34:13;;;;;;;45.08;29.98;;;;;;;19.64;100.00;100850.89;1710564;82;21106;-89
2021/09/11 17:36:40;;;;;;;50.83;31.68;;;;;;;19.59;100.00;100845.81;1710416;82;21089;-90
2021/09/11 17:39:09;;;;;;;50.58;32.25;;;;;;;19.50;100.00;100849.80;1710744;81;21079;-91
2021/09/11 17:41:37;;;;;;;47.62;30.32;;;;;;;19.42;100.00;100852.92;1710507;82;21113;-90
2021/09/11 17:44:05;;;;;;;52.13;33.25;;;;;;;19.32;100.00;100842.55;1684267;81;20995;-91
2021/09/11 17:46:34;;;;;;;55.20;35.85;;;;;;;19.25;100.00;100849.50;1740273;81;21074;-90
2021/09/11 17:49:02;;;;;;;49.23;34.30;;;;;;;19.17;100.00;100847.20;1729731;82;21791;-90
2021/09/11 17:51:29;;;;;;;49.70;33.73;;;;;;;19.10;100.00;100847.53;1709923;82;21107;-91
2021/09/11 17:54:10;;;;;;;;;;;;;;;;;;;;;
2021/09/11 17:56:33;;;;;;;55.78;35.17;;;;;;;18.97;100.00;100849.34;1730043;82;21046;-91
2021/09/11 17:59:00;;;;;;;65.10;39.27;;;;;;;18.89;100.00;100846.17;1700699;82;21017;-90
2021/09/11 18:01:29;;;;;;;86.87;50.88;;;;;;;18.85;100.00;100854.09;1693150;83;21018;-92
2021/09/11 18:03:56;;;;;;;75.85;45.60;;;;;;;18.78;100.00;100858.38;1671911;84;21040;-89
2021/09/11 18:06:24;;;;;;;62.78;40.73;;;;;;;18.69;100.00;100856.72;1648890;84;21142;-90
2021/09/11 18:08:54;;;;;;;60.45;37.90;;;;;;;18.59;100.00;100852.89;1696788;82;20992;-90
2021/09/11 18:11:21;;;;;;;55.05;38.02;;;;;;;18.53;100.00;100857.50;1712153;81;21011;-91
2021/09/11 18:13:50;;;;;;;47.43;32.78;;;;;;;18.48;100.00;100855.34;1735988;82;21116;-89
2021/09/11 18:16:17;;;;;;;52.48;32.13;;;;;;;18.42;100.00;100853.36;1713554;82;21604;-89
2021/09/11 18:18:46;;;;;;;55.63;32.00;;;;;;;18.39;100.00;100851.03;1734702;82;21129;-90
2021/09/11 18:21:16;;;;;;;51.80;31.37;;;;;;;18.40;100.00;100854.01;1734180;82;21102;-90
2021/09/11 18:23:45;;;;;;;48.85;31.00;;;;;;;18.43;100.00;100851.88;1713810;82;21114;-91
2021/09/11 18:26:16;;;;;;;48.35;31.33;;;;;;;18.45;100.00;100851.23;1713648;82;21030;-89
2021/09/11 18:28:45;;;;;;;42.03;29.57;;;;;;;18.47;100.00;100851.05;1710550;82;21015;-90
2021/09/11 18:31:14;;;;;;;43.05;28.42;;;;;;;18.48;100.00;100851.39;1713284;81;21544;-84
2021/09/11 18:33:41;;;;;;;40.80;29.15;;;;;;;18.44;100.00;100846.94;1712970;82;21086;-87
2021/09/11 18:36:09;;;;;;;42.60;30.65;;;;;;;18.42;100.00;100846.77;1685400;82;20959;-88
2021/09/11 18:38:36;;;;;;;46.15;30.17;;;;;;;18.43;100.00;100848.42;1713733;82;21051;-89
2021/09/11 18:41:04;;;;;;;51.18;30.70;;;;;;;18.44;100.00;100848.25;1713757;82;21068;-88
2021/09/11 18:43:31;;;;;;;59.65;32.60;;;;;;;18.42;100.00;100844.14;1684993;82;21639;-88
2021/09/11 18:45:58;;;;;;;54.15;31.37;;;;;;;18.38;100.00;100848.09;1663865;83;21026;-87
2021/09/11 18:48:26;;;;;;;62.43;29.60;;;;;;;18.29;100.00;100842.80;1693273;80;21529;-90
2021/09/11 18:50:55;;;;;;;74.27;31.55;;;;;;;18.23;100.00;100847.37;1764890;80;21030;-89
2021/09/11 18:53:23;;;;;;;46.65;27.17;;;;;;;18.18;100.00;100843.59;1740245;81;21192;-88
2021/09/11 18:55:51;;;;;;;56.42;28.87;;;;;;;18.15;100.00;100847.84;1740125;81;21712;-91
2021/09/11 18:58:19;;;;;;;48.55;29.48;;;;;;;18.12;100.00;100846.36;1739207;80;21084;-88
2021/09/11 19:00:47;;;;;;;58.50;28.57;;;;;;;18.12;100.00;100845.86;1740426;80;21078;-89
2021/09/11 19:03:19;;;;;;;37.15;24.87;;;;;;;18.13;100.00;100846.19;1696264;82;21050;-86
2021/09/11 19:05:52;;;;;;;34.10;21.23;;;;;;;18.14;100.00;100845.72;1720001;79;22329;-87
2021/09/11 19:08:19;;;;;;;33.65;24.90;;;;;;;18.08;100.00;100847.17;1712496;81;21557;-88
2021/09/11 19:10:51;;;;;;;46.80;25.57;;;;;;;18.03;100.00;100845.99;1760470;80;21427;-87
2021/09/11 19:13:20;;;;;;;41.42;24.57;;;;;;;17.99;100.00;100848.13;1752125;80;21290;-87
2021/09/11 19:15:50;;;;;;;44.10;27.17;;;;;;;17.95;100.00;100839.71;1773427;80;21031;-88
2021/09/11 19:18:20;;;;;;;35.00;23.85;;;;;;;17.90;100.00;100839.34;1751742;80;21029;-90
2021/09/11 19:20:49;;;;;;;28.42;21.33;;;;;;;17.86;100.00;100839.81;1751427;80;21141;-89
2021/09/11 19:23:18;;;;;;;24.82;19.12;;;;;;;17.80;100.00;100848.66;1751601;80;21058;-88
2021/09/11 19:25:50;;;;;;;26.48;18.92;;;;;;;17.73;100.00;100842.37;1751621;80;21730;-91
2021/09/11 19:28:20;;;;;;;40.15;19.20;;;;;;;17.68;100.00;100845.12;1751740;80;21065;-91
2021/09/11 19:30:48;;;;;;;34.58;19.52;;;;;;;17.60;100.00;100838.03;1726373;80;21109;-89
2021/09/11 19:33:25;;;;;;;31.50;19.77;;;;;;;17.56;100.00;100845.89;1749055;80;21061;-89
2021/09/11 19:35:58;;;;;;;28.15;19.77;;;;;;;17.55;100.00;100843.77;1772715;80;21003;-90
2021/09/11 19:38:26;;;;;;;32.78;21.73;;;;;;;17.58;100.00;100845.25;1762756;80;21012;-91
2021/09/11 19:40:55;;;;;;;36.15;21.20;;;;;;;17.57;100.00;100842.28;1740044;80;21024;-89
2021/09/11 19:43:22;;;;;;;37.05;22.07;;;;;;;17.52;100.00;100847.20;1675925;84;21970;-88
2021/09/11 19:45:49;;;;;;;33.28;21.15;;;;;;;17.49;100.00;100839.12;1676016;84;21000;-92
2021/09/11 19:48:16;;;;;;;28.20;20.08;;;;;;;17.48;100.00;100842.73;1687894;83;21078;-89
2021/09/11 19:50:43;;;;;;;25.43;18.20;;;;;;;17.44;100.00;100840.91;1710494;83;21087;-88
2021/09/11 19:53:11;;;;;;;25.20;18.05;;;;;;;17.44;100.00;100846.64;1711763;83;21081;-89
2021/09/11 19:55:39;;;;;;;33.13;19.70;;;;;;;17.39;100.00;100841.84;1685861;84;21130;-89
2021/09/11 19:58:09;;;;;;;25.35;18.12;;;;;;;17.37;100.00;100841.66;1685500;84;21544;-89
2021/09/11 20:00:35;;;;;;;29.02;18.87;;;;;;;17.38;100.00;100843.31;1683139;84;21585;-90
2021/09/11 20:03:02;;;;;;;26.52;18.73;;;;;;;17.41;100.00;100837.75;1658755;85;21086;-90
2021/09/11 20:05:31;;;;;;;43.78;20.17;;;;;;;17.43;100.00;100840.56;1658053;85;21589;-90
2021/09/11 20:08:00;;;;;;;31.27;20.13;;;;;;;17.45;100.00;100842.56;1686224;85;21722;-89
2021/09/11 20:10:45;;;;;;;;;;;;;;;;;;;;;
2021/09/11 20:13:01;;;;;;;30.50;19.57;;;;;;;17.47;100.00;100845.84;1638455;85;21078;-90
2021/09/11 20:15:32;;;;;;;33.53;21.37;;;;;;;17.42;100.00;100843.36;1658351;85;21074;-89
2021/09/11 20:18:03;;;;;;;29.77;19.30;;;;;;;17.34;100.00;100846.28;1679375;84;21062;-91
2021/09/11 20:20:35;;;;;;;29.25;19.87;;;;;;;17.26;100.00;100845.38;1657355;85;21331;-91
2021/09/11 20:23:06;;;;;;;46.80;19.52;;;;;;;17.18;100.00;100842.21;1678906;85;21102;-89
2021/09/11 20:25:37;;;;;;;31.23;18.85;;;;;;;17.15;100.00;100844.63;1657233;85;21090;-90
2021/09/11 20:28:04;;;;;;;25.70;18.12;;;;;;;17.16;100.00;100846.29;1657478;85;21108;-90
2021/09/11 20:30:33;;;;;;;20.05;16.65;;;;;;;17.16;100.00;100844.16;1701994;83;21561;-90
2021/09/11 20:33:03;;;;;;;27.52;18.05;;;;;;;17.12;100.00;100844.95;1707882;83;21094;-90
2021/09/11 20:35:30;;;;;;;24.30;18.00;;;;;;;17.03;100.00;100841.42;1686724;83;20963;-90
2021/09/11 20:37:59;;;;;;;60.67;18.75;;;;;;;16.92;100.00;100838.17;1714814;83;20967;-90
2021/09/11 20:40:26;;;;;;;95.00;21.42;;;;;;;16.83;100.00;100848.61;1707987;83;20975;-90
2021/09/11 20:42:55;;;;;;;28.05;18.17;;;;;;;16.78;100.00;100844.31;1686439;84;21015;-88
2021/09/11 20:45:22;;;;;;;21.60;17.85;;;;;;;16.74;100.00;100839.50;1662644;84;21728;-89
2021/09/11 20:47:51;;;;;;;27.10;18.15;;;;;;;16.65;100.00;100839.42;1693384;83;21102;-89
2021/09/11 20:50:18;;;;;;;28.70;18.80;;;;;;;16.61;100.00;100836.77;1677880;84;21508;-90
2021/09/11 20:52:50;;;;;;;29.95;18.85;;;;;;;16.58;100.00;100840.19;1716071;82;21014;-90
2021/09/11 20:55:17;;;;;;;24.80;19.42;;;;;;;16.51;100.00;100840.76;1703372;82;21142;-89
2021/09/11 20:57:44;;;;;;;28.35;18.80;;;;;;;16.49;100.00;100840.57;1681864;82;21114;-88
2021/09/11 21:00:13;;;;;;;24.95;18.75;;;;;;;16.43;100.00;100839.86;1677864;85;21542;-90
2021/09/11 21:05:11;;;;;;;25.75;19.87;;;;;;;16.26;100.00;100844.12;1741860;81;21009;-89
2021/09/11 21:07:38;;;;;;;31.85;21.20;;;;;;;16.17;100.00;100839.24;1716100;81;21430;-88
2021/09/11 21:10:06;;;;;;;30.35;21.23;;;;;;;16.07;100.00;100840.11;1717473;82;21035;-88
2021/09/11 21:12:34;;;;;;;26.52;20.08;;;;;;;15.98;100.00;100836.23;1716380;82;21010;-89
2021/09/11 21:15:01;;;;;;;28.02;20.62;;;;;;;15.88;100.00;100842.84;1717607;81;21108;-89
2021/09/11 21:17:30;;;;;;;28.10;20.57;;;;;;;15.79;100.00;100840.55;1717334;82;21133;-90
2021/09/11 21:19:58;;;;;;;28.80;20.10;;;;;;;15.74;100.00;100838.85;1738118;81;21010;-92
2021/09/11 21:22:25;;;;;;;27.40;19.65;;;;;;;15.70;100.00;100842.75;1716244;82;21561;-87
2021/09/11 21:24:53;;;;;;;42.80;21.10;;;;;;;15.70;100.00;100837.50;1717646;82;21057;-89
2021/09/11 21:27:19;;;;;;;33.50;21.60;;;;;;;15.76;100.00;100839.05;1718289;80;21124;-90
2021/09/11 21:29:51;;;;;;;38.73;21.90;;;;;;;15.86;100.00;100836.44;1716574;82;20983;-90
2021/09/11 21:32:18;;;;;;;37.15;22.42;;;;;;;15.96;100.00;100836.85;1712783;82;21041;-90
2021/09/11 21:34:46;;;;;;;29.87;22.58;;;;;;;16.04;100.00;100842.20;1716486;82;21046;-91
2021/09/11 21:37:13;;;;;;;32.80;24.23;;;;;;;16.11;100.00;100846.41;1716245;82;21568;-88
2021/09/11 21:39:42;;;;;;;35.15;25.95;;;;;;;16.12;100.00;100844.12;1735439;81;21069;-90
2021/09/11 21:42:09;;;;;;;40.88;25.45;;;;;;;16.04;100.00;100844.36;1736705;81;21049;-90
2021/09/11 21:44:36;;;;;;;40.15;25.15;;;;;;;15.95;100.00;100846.55;1716884;81;21148;-91
2021/09/11 21:47:03;;;;;;;41.53;26.37;;;;;;;15.95;100.00;100844.39;1716074;82;21378;-90
2021/09/11 21:49:30;;;;;;;45.20;25.43;;;;;;;16.02;100.00;100848.11;1717518;80;21049;-91
2021/09/11 21:51:59;;;;;;;43.15;24.07;;;;;;;16.09;100.00;100847.87;1719230;81;21599;-89
2021/09/11 21:54:27;;;;;;;37.70;23.77;;;;;;;16.13;100.00;100847.09;1719164;82;21018;-90
2021/09/11 21:56:54;;;;;;;30.32;22.20;;;;;;;16.12;100.00;100849.38;1719448;82;21523;-88
2021/09/11 21:59:23;;;;;;;33.05;21.77;;;;;;;16.13;100.00;100861.03;1743204;81;21211;-89
2021/09/11 22:01:53;;;;;;;30.23;21.07;;;;;;;16.01;100.00;100855.64;1744066;80;21089;-88
2021/09/11 22:04:21;;;;;;;32.53;21.52;;;;;;;15.86;100.00;100843.47;1738019;82;21540;-89
2021/09/11 22:06:49;;;;;;;65.25;23.42;;;;;;;15.75;100.00;100842.64;1744716;82;21725;-90
2021/09/11 22:09:17;;;;;;;37.98;21.10;;;;;;;15.71;100.00;100838.66;1715960;81;21414;-89
2021/09/11 22:11:44;;;;;;;38.08;23.22;;;;;;;15.70;100.00;100838.81;1739884;81;21140;-90
2021/09/11 22:14:13;;;;;;;32.40;21.93;;;;;;;15.72;100.00;100832.44;1742781;81;20943;-91
2021/09/11 22:16:42;;;;;;;32.15;22.02;;;;;;;15.73;100.00;100839.34;1742746;81;21073;-90
2021/09/11 22:19:09;;;;;;;31.93;22.32;;;;;;;15.75;100.00;100839.20;1716250;81;21084;-89
2021/09/11 22:21:37;;;;;;;32.83;21.68;;;;;;;15.79;100.00;100837.92;1716960;82;20982;-88
2021/09/11 22:24:05;;;;;;;35.85;21.65;;;;;;;15.83;100.00;100833.21;1741758;81;21752;-88
2021/09/11 22:26:32;;;;;;;254.53;33.95;;;;;;;15.84;100.00;100836.21;1718274;82;21033;-90
2021/09/11 22:28:59;;;;;;;243.48;34.90;;;;;;;15.80;100.00;100826.95;1715286;82;21057;-92
2021/09/11 22:31:27;;;;;;;41.45;23.57;;;;;;;15.79;100.00;100835.30;1715991;82;21457;-89
2021/09/11 22:33:54;;;;;;;35.20;23.12;;;;;;;15.75;100.00;100826.88;1717467;82;21034;-90
2021/09/11 22:36:21;;;;;;;32.17;23.92;;;;;;;15.66;100.00;100829.09;1718628;82;21294;-88
2021/09/11 22:38:50;;;;;;;40.50;23.98;;;;;;;15.56;100.00;100836.16;1717824;82;21569;-89
2021/09/11 22:41:19;;;;;;;37.78;24.60;;;;;;;15.44;100.00;100832.88;1716508;82;21072;-92
2021/09/11 22:43:47;;;;;;;38.42;23.62;;;;;;;15.37;100.00;100829.16;1720538;82;21120;-90
2021/09/11 22:46:15;;;;;;;33.05;24.02;;;;;;;15.34;100.00;100828.97;1718452;82;21026;-90
2021/09/11 22:48:44;;;;;;;36.20;25.45;;;;;;;15.27;100.00;100831.78;1738016;82;21006;-90
2021/09/11 22:51:11;;;;;;;37.42;26.60;;;;;;;15.19;100.00;100840.83;1716813;82;21769;-89
2021/09/11 22:53:39;;;;;;;36.38;26.77;;;;;;;15.07;100.00;100835.76;1716992;82;21105;-90
2021/09/11 22:56:06;;;;;;;44.10;26.62;;;;;;;14.96;100.00;100835.89;1716920;82;21556;-89
2021/09/11 22:58:33;;;;;;;36.45;28.85;;;;;;;14.87;100.00;100825.77;1716876;81;21006;-89
2021/09/11 23:01:00;;;;;;;36.80;28.07;;;;;;;14.78;100.00;100832.64;1716731;82;21080;-89
2021/09/11 23:03:27;;;;;;;38.35;29.12;;;;;;;14.65;100.00;100825.05;1717205;82;21010;-90
2021/09/11 23:05:54;;;;;;;34.60;27.48;;;;;;;14.54;100.00;100830.89;1716869;82;21069;-89
2021/09/11 23:08:23;;;;;;;33.15;25.82;;;;;;;14.43;100.00;100827.89;1716600;82;21124;-88
2021/09/11 23:10:51;;;;;;;34.05;24.67;;;;;;;14.33;100.00;100827.88;1737770;81;21540;-90
2021/09/11 23:13:19;;;;;;;36.13;24.87;;;;;;;14.27;100.00;100827.11;1717214;82;21919;-88
2021/09/11 23:15:48;;;;;;;32.38;24.05;;;;;;;14.18;100.00;100826.95;1737732;81;21061;-88
2021/09/11 23:18:15;;;;;;;43.52;25.75;;;;;;;14.14;100.00;100828.17;1717396;81;21140;-89
2021/09/11 23:20:43;;;;;;;38.15;24.15;;;;;;;14.13;100.00;100827.84;1716904;82;21045;-90
2021/09/11 23:23:11;;;;;;;34.98;25.68;;;;;;;14.17;100.00;100827.09;1735117;81;21041;-90
2021/09/11 23:25:46;;;;;;;34.48;25.57;;;;;;;14.23;100.00;100827.86;1738187;81;20974;-92
2021/09/11 23:28:13;;;;;;;37.60;25.23;;;;;;;14.33;100.00;100826.57;1717154;82;21069;-91
2021/09/11 23:30:42;;;;;;;34.40;25.92;;;;;;;14.43;100.00;100823.49;1737639;81;21607;-91
2021/09/11 23:33:09;;;;;;;37.23;27.17;;;;;;;14.52;100.00;100828.39;1716865;82;21006;-90
2021/09/11 23:35:45;;;;;;;36.45;26.20;;;;;;;14.61;100.00;100829.38;1716708;82;21014;-93
2021/09/11 23:38:20;;;;;;;32.90;24.87;;;;;;;14.65;100.00;100829.44;1714885;82;21320;-93
2021/09/11 23:44:11;;;;;;;;;;;;;;;;;;;;;
2021/09/11 23:46:41;;;;;;;;;;;;;;;;;;;;;
2021/09/11 23:49:02;;;;;;;30.80;23.00;;;;;;;14.83;100.00;100830.92;1713328;81;21568;-90
2021/09/11 23:51:29;;;;;;;33.90;23.83;;;;;;;14.87;100.00;100831.47;1717114;82;22146;-89
2021/09/11 23:53:56;;;;;;;31.07;23.52;;;;;;;14.89;100.00;100833.02;1716782;82;21394;-90
2021/09/11 23:56:23;;;;;;;29.67;23.55;;;;;;;14.90;100.00;100828.59;1718139;82;21057;-91
2021/09/11 23:58:53;;;;;;;25.70;22.27;;;;;;;14.92;100.00;100828.78;1742757;81;21039;-89
